»·PEaware :: WAT202 KRIV-KAVX

WAT202 :: KRIV-KAVX

FLIGHT INFORMATION

Flight Status: Arrived
Operator:
Walker Air Transport
More flights by this operator :: More flights under this callsign
Pilot: Nick L. (7253)
Aircraft: BEECH AIRCRAFT SUPER KING AIR 350
(B350)
More flights by this aircraft type
Origin: KRIV March ARB
United States
Destination: KAVX Catalina
United States
More flights between these airports :: More routes between these airports
Route: PDZ V16 PRADO V363 DANAH SXC065 SXC
File this flight plan on PilotEdge
Remarks:
Altitude:
(Current/Filed)
7,000ft
Speed:
(Current/Filed)
250kts
Departed: 14-Mar-21 02:39 PM
Arrived: 14-Mar-21 03:50 PM
Distance/Time
Traveled:
64nm/1:11
Distance/Time
To Go:
Arrived

Flight Plot

Page will automatically refresh every two minutes.

Flight plan parsing failed; only flown route is shown


Map Options




Map Legend


Flown Route
Filed Route
Departure Airport
Arrival Airport
Navaid (VOR, NDB)
Fix

Horizontal Profiles

Position Reports

Time Latitude Longitude Heading Altitude Ground
Speed
14-Mar-21 13:56 33.890987 -117.252457 134 1518ft 0kts
14-Mar-21 13:57 33.890987 -117.252457 134 1518ft 0kts
14-Mar-21 13:58 33.890987 -117.252457 134 1518ft 0kts
14-Mar-21 13:59 33.890987 -117.252457 134 1518ft 0kts
14-Mar-21 14:00 33.890987 -117.252457 134 1518ft 0kts
14-Mar-21 14:01 33.890987 -117.252457 134 1518ft 0kts
14-Mar-21 14:02 33.890987 -117.252457 134 1518ft 0kts
14-Mar-21 14:03 33.890987 -117.252457 134 1518ft 0kts
14-Mar-21 14:04 33.890987 -117.252457 134 1518ft 0kts
14-Mar-21 14:05 33.890987 -117.252457 134 1518ft 0kts
14-Mar-21 14:06 33.890987 -117.252457 134 1518ft 0kts
14-Mar-21 14:07 33.890987 -117.252457 134 1518ft 0kts
14-Mar-21 14:08 33.890987 -117.252457 134 1518ft 0kts
14-Mar-21 14:09 33.890987 -117.252457 134 1518ft 0kts
14-Mar-21 14:10 33.890987 -117.252457 134 1518ft 0kts
14-Mar-21 14:11 33.890987 -117.252457 134 1518ft 0kts
14-Mar-21 14:12 33.890987 -117.252457 134 1518ft 0kts
14-Mar-21 14:13 33.890987 -117.252457 134 1518ft 0kts
14-Mar-21 14:15 33.890987 -117.252457 134 1518ft 0kts
14-Mar-21 14:16 33.890987 -117.252457 134 1518ft 0kts
14-Mar-21 14:17 33.890987 -117.252457 134 1518ft 0kts
14-Mar-21 14:18 33.890987 -117.252457 134 1518ft 0kts
14-Mar-21 14:19 33.890987 -117.252457 134 1518ft 0kts
14-Mar-21 14:20 33.890987 -117.252457 134 1518ft 0kts
14-Mar-21 14:21 33.890987 -117.252457 134 1518ft 0kts
14-Mar-21 14:22 33.890987 -117.252457 134 1518ft 0kts
14-Mar-21 14:23 33.890987 -117.252457 134 1518ft 0kts
14-Mar-21 14:24 33.890987 -117.252457 134 1518ft 0kts
14-Mar-21 14:25 33.890462 -117.252455 217 1518ft 2kts
14-Mar-21 14:26 33.885971 -117.251116 143 1518ft 27kts
14-Mar-21 14:27 33.880409 -117.249297 220 1518ft 21kts
14-Mar-21 14:28 33.875581 -117.251944 183 1518ft 18kts
14-Mar-21 14:29 33.869688 -117.248366 153 1518ft 28kts
14-Mar-21 14:30 33.866050 -117.246541 211 1518ft 0kts
14-Mar-21 14:31 33.866050 -117.246541 211 1518ft 0kts
14-Mar-21 14:32 33.866002 -117.246581 216 1518ft 3kts
14-Mar-21 14:33 33.865863 -117.246724 226 1518ft 0kts
14-Mar-21 14:34 33.865773 -117.246846 230 1518ft 3kts
14-Mar-21 14:35 33.865649 -117.247066 239 1518ft 0kts
14-Mar-21 14:36 33.865518 -117.247354 245 1518ft 0kts
14-Mar-21 14:37 33.865408 -117.247705 251 1518ft 10kts
14-Mar-21 14:38 33.865420 -117.248557 329 1518ft 0kts
14-Mar-21 14:39 33.886772 -117.264037 328 2048ft 157kts
14-Mar-21 14:40 33.925191 -117.292247 329 4035ft 163kts
14-Mar-21 14:41 33.953506 -117.332356 267 5069ft 198kts
14-Mar-21 14:42 33.940367 -117.406305 259 5439ft 227kts
14-Mar-21 14:43 33.928701 -117.471712 261 7064ft 224kts
14-Mar-21 14:44 33.918894 -117.554984 273 7042ft 259kts
14-Mar-21 14:44 33.920705 -117.632498 274 7038ft 264kts
14-Mar-21 14:46 33.909512 -117.724603 229 8043ft 254kts
14-Mar-21 14:47 33.860426 -117.789640 231 8008ft 268kts
14-Mar-21 14:48 33.809481 -117.856535 231 8010ft 273kts
14-Mar-21 14:49 33.758562 -117.923635 231 8012ft 269kts
14-Mar-21 14:49 33.715397 -117.980124 230 8010ft 266kts
14-Mar-21 14:51 33.656557 -118.056167 231 8004ft 257kts
14-Mar-21 14:51 33.616552 -118.108089 231 8001ft 251kts
14-Mar-21 14:53 33.560788 -118.180636 231 7896ft 259kts
14-Mar-21 14:54 33.509868 -118.246655 230 6218ft 240kts
14-Mar-21 14:54 33.474686 -118.291776 230 5992ft 204kts
14-Mar-21 14:56 33.424694 -118.356391 231 6005ft 214kts
14-Mar-21 14:56 33.388631 -118.402855 230 5998ft 208kts
14-Mar-21 14:57 33.340276 -118.443681 214 5999ft 202kts
14-Mar-21 14:58 33.288408 -118.469807 166 5988ft 211kts
14-Mar-21 14:59 33.280404 -118.416548 31 6013ft 192kts
14-Mar-21 15:00 33.329978 -118.402165 32 5593ft 205kts
14-Mar-21 15:01 33.378032 -118.362403 30 4985ft 201kts
14-Mar-21 15:02 33.431925 -118.344739 12 4510ft 214kts
14-Mar-21 15:03 33.491650 -118.327822 12 3330ft 225kts
14-Mar-21 15:04 33.523119 -118.366918 271 3283ft 175kts
14-Mar-21 15:05 33.501782 -118.403813 177 3311ft 162kts
14-Mar-21 15:06 33.456625 -118.407967 188 2825ft 157kts
14-Mar-21 15:07 33.415736 -118.413911 189 2312ft 146kts
14-Mar-21 15:08 33.368393 -118.424578 210 3332ft 198kts
14-Mar-21 15:09 33.321099 -118.464310 254 3399ft 194kts
14-Mar-21 15:10 33.360240 -118.497862 352 3395ft 190kts
14-Mar-21 15:11 33.412694 -118.505116 352 3397ft 186kts
14-Mar-21 15:12 33.463968 -118.501079 22 3414ft 192kts
14-Mar-21 15:13 33.514730 -118.474737 22 3398ft 200kts
14-Mar-21 15:14 33.551286 -118.432977 104 3405ft 203kts
14-Mar-21 15:15 33.506244 -118.406428 164 3283ft 174kts
14-Mar-21 15:16 33.457870 -118.407797 189 2247ft 158kts
14-Mar-21 15:17 33.418721 -118.413288 184 2470ft 145kts
14-Mar-21 15:18 33.373092 -118.421578 206 3436ft 192kts
14-Mar-21 15:19 33.324837 -118.454975 217 3411ft 191kts
14-Mar-21 15:20 33.346470 -118.485493 46 3420ft 195kts
14-Mar-21 15:21 33.369749 -118.423745 33 3866ft 196kts
14-Mar-21 15:22 33.402531 -118.451341 244 4714ft 188kts
14-Mar-21 15:23 33.356954 -118.488122 212 5004ft 200kts
14-Mar-21 15:24 33.319799 -118.466237 72 5014ft 192kts
14-Mar-21 15:25 33.360986 -118.429195 27 5011ft 193kts
14-Mar-21 15:26 33.405911 -118.435487 285 5011ft 190kts
14-Mar-21 15:27 33.372381 -118.481414 215 5009ft 203kts
14-Mar-21 15:28 33.321903 -118.492540 130 5010ft 210kts
14-Mar-21 15:29 33.343362 -118.441393 27 5010ft 198kts
14-Mar-21 15:30 33.395225 -118.418869 334 5012ft 192kts
14-Mar-21 15:31 33.388100 -118.471973 214 5023ft 203kts
14-Mar-21 15:32 33.336834 -118.502866 176 4996ft 208kts
14-Mar-21 15:33 33.326468 -118.453285 29 5015ft 191kts
14-Mar-21 15:34 33.372723 -118.421200 27 5007ft 192kts
14-Mar-21 15:35 33.404194 -118.451321 247 5011ft 189kts
14-Mar-21 15:36 33.359957 -118.487765 213 5009ft 197kts
14-Mar-21 15:37 33.318629 -118.472226 85 5016ft 197kts
14-Mar-21 15:38 33.356581 -118.432279 27 5009ft 190kts
14-Mar-21 15:39 33.402660 -118.428967 300 5013ft 183kts
14-Mar-21 15:40 33.421770 -118.480284 343 5033ft 182kts
14-Mar-21 15:41 33.472566 -118.494997 352 4999ft 187kts
14-Mar-21 15:42 33.525796 -118.502286 352 3746ft 198kts
14-Mar-21 15:43 33.562613 -118.460835 62 3310ft 206kts
14-Mar-21 15:44 33.563196 -118.399843 156 3294ft 202kts
14-Mar-21 15:45 33.510682 -118.400333 187 2566ft 174kts
14-Mar-21 15:46 33.467168 -118.406376 189 2324ft 139kts
14-Mar-21 15:47 33.428430 -118.408352 160 2100ft 137kts
14-Mar-21 15:48 33.403908 -118.417624 233 1571ft 70kts
14-Mar-21 15:49 33.403461 -118.417668 55 1571ft 18kts
14-Mar-21 15:50 33.404005 -118.414511 347 1571ft 13kts
14-Mar-21 15:51 33.404088 -118.414831 245 1571ft 0kts
14-Mar-21 15:52 33.404088 -118.414831 245 1571ft 0kts
14-Mar-21 15:53 33.404088 -118.414831 245 1571ft 0kts
14-Mar-21 15:54 33.404088 -118.414831 245 1571ft 0kts
14-Mar-21 15:55 33.404088 -118.414831 245 1571ft 0kts
14-Mar-21 15:56 33.404088 -118.414831 245 1571ft 0kts

Navigation Log

Ident Type
Flight plan parsing failed, navigation log unavailable